Time;durP1;ratioP1;P1;durP2;ratioP2;P2;SDS_P1;SDS_P2;PMS_P1;PMS_P2;Temp;Humidity;BMP_temperature;BMP_pressure;BME280_temperature;BME280_humidity;BME280_pressure;Samples;Min_cycle;Max_cycle;Signal;HPM_P1;HPM_P2
2023/07/11 00:02:15;;;;;;;4.22;2.20;;;17.10;99.90;;;;;;5120397;27;20051;-79
2023/07/11 00:04:41;;;;;;;7.85;2.33;;;17.10;99.90;;;;;;5112910;27;20526;-79
2023/07/11 00:07:06;;;;;;;6.03;2.30;;;17.20;99.90;;;;;;5107656;27;20044;-78
2023/07/11 00:09:32;;;;;;;5.65;2.03;;;17.20;99.90;;;;;;5107732;27;20389;-79
2023/07/11 00:11:58;;;;;;;5.32;2.30;;;17.20;99.90;;;;;;5105621;27;20067;-79
2023/07/11 00:14:23;;;;;;;3.08;1.90;;;17.30;99.90;;;;;;5106835;27;20040;-78
2023/07/11 00:16:52;;;;;;;6.28;2.33;;;17.30;99.90;;;;;;5106017;27;20082;-78
2023/07/11 00:19:19;;;;;;;5.03;2.28;;;17.50;99.90;;;;;;5108758;27;20096;-79
2023/07/11 00:21:45;;;;;;;5.50;2.30;;;17.40;99.90;;;;;;5109143;28;20528;-78
2023/07/11 00:24:11;;;;;;;3.08;2.20;;;17.40;99.90;;;;;;5108199;28;21455;-79
2023/07/11 00:26:37;;;;;;;5.63;2.17;;;17.40;99.90;;;;;;5106957;27;20055;-79
2023/07/11 00:29:21;;;;;;;3.88;2.20;;;17.40;99.90;;;;;;5105202;27;20051;-78
2023/07/11 00:31:47;;;;;;;3.85;2.17;;;17.40;99.90;;;;;;5104528;27;20104;-78
2023/07/11 00:34:14;;;;;;;3.80;2.22;;;17.30;99.90;;;;;;5107819;27;20047;-78
2023/07/11 00:36:39;;;;;;;4.30;2.30;;;17.40;99.90;;;;;;5107630;27;20120;-79
2023/07/11 00:39:05;;;;;;;5.20;2.22;;;17.50;99.90;;;;;;5106017;27;20488;-79
2023/07/11 00:41:32;;;;;;;2.95;2.00;;;17.50;99.90;;;;;;5106056;27;20050;-79
2023/07/11 00:43:57;;;;;;;3.05;2.20;;;17.50;99.90;;;;;;5105628;27;20104;-79
2023/07/11 00:46:23;;;;;;;5.70;2.13;;;17.50;99.90;;;;;;5106481;27;20055;-79
2023/07/11 00:48:53;;;;;;;4.47;2.03;;;17.50;99.90;;;;;;5104764;27;20047;-78
2023/07/11 00:51:33;;;;;;;7.57;2.50;;;17.60;99.90;;;;;;5104318;27;20097;-78
2023/07/11 00:54:00;;;;;;;4.53;2.30;;;17.60;99.90;;;;;;5106724;27;20036;-79
2023/07/11 00:56:30;;;;;;;2.85;2.00;;;17.80;99.90;;;;;;5105469;27;20043;-79
2023/07/11 00:58:57;;;;;;;3.05;1.88;;;17.60;99.90;;;;;;5107099;27;20044;-79
2023/07/11 01:01:23;;;;;;;4.38;2.17;;;17.60;99.90;;;;;;5107111;27;20051;-78
2023/07/11 01:03:52;;;;;;;4.93;1.77;;;17.70;99.90;;;;;;5108996;27;20044;-78
2023/07/11 01:06:22;;;;;;;4.53;2.15;;;17.70;99.90;;;;;;5110706;27;20051;-79
2023/07/11 01:08:49;;;;;;;5.15;2.10;;;17.70;99.90;;;;;;5106325;27;20051;-79
2023/07/11 01:11:16;;;;;;;2.53;1.75;;;17.70;99.90;;;;;;5106302;27;20064;-79
2023/07/11 01:13:42;;;;;;;3.03;2.00;;;17.60;99.90;;;;;;5107529;27;20050;-79
2023/07/11 01:16:08;;;;;;;3.90;1.90;;;17.60;99.90;;;;;;5125893;27;20039;-78
2023/07/11 01:18:34;;;;;;;3.65;1.92;;;17.60;99.90;;;;;;5128024;27;20431;-79
2023/07/11 01:20:59;;;;;;;4.53;2.20;;;18.00;99.90;;;;;;5110524;27;20040;-79
2023/07/11 01:23:26;;;;;;;3.78;2.00;;;17.50;99.90;;;;;;5109039;28;20127;-79
2023/07/11 01:25:59;;;;;;;5.95;2.10;;;17.50;99.90;;;;;;5114962;27;20067;-79
2023/07/11 01:28:25;;;;;;;5.10;1.95;;;17.50;99.90;;;;;;5115559;27;20043;-79
2023/07/11 01:30:50;;;;;;;3.35;1.92;;;17.40;99.90;;;;;;5107013;27;20047;-79
2023/07/11 01:33:16;;;;;;;3.92;1.85;;;17.30;99.90;;;;;;5124464;27;20237;-79
2023/07/11 01:35:42;;;;;;;3.15;2.00;;;17.60;99.90;;;;;;5108702;27;20047;-79
2023/07/11 01:38:07;;;;;;;3.97;2.00;;;17.40;99.90;;;;;;5119216;27;20490;-79
2023/07/11 01:40:33;;;;;;;5.10;2.28;;;17.30;99.90;;;;;;5121286;27;20130;-79
2023/07/11 01:42:59;;;;;;;4.90;2.92;;;17.30;99.90;;;;;;5108954;27;20086;-79
2023/07/11 01:45:25;;;;;;;3.78;2.65;;;17.30;99.90;;;;;;5118908;27;20046;-79
2023/07/11 01:47:50;;;;;;;3.38;2.17;;;17.20;99.90;;;;;;5117108;27;20047;-79
2023/07/11 01:50:16;;;;;;;3.08;2.15;;;17.20;99.90;;;;;;5107058;27;20139;-79
2023/07/11 01:52:41;;;;;;;2.80;2.22;;;17.20;99.90;;;;;;5114233;27;20394;-79
2023/07/11 01:55:10;;;;;;;6.60;2.72;;;17.20;99.90;;;;;;5123149;27;20126;-79
2023/07/11 01:57:36;;;;;;;8.68;2.70;;;17.10;99.90;;;;;;5127341;27;20070;-79
2023/07/11 02:00:02;;;;;;;6.40;2.50;;;17.10;99.90;;;;;;5120277;27;20440;-79
2023/07/11 02:02:28;;;;;;;4.90;2.70;;;17.10;99.90;;;;;;5120911;27;20062;-79
2023/07/11 02:04:54;;;;;;;6.20;2.80;;;17.00;99.90;;;;;;5126465;27;20035;-79
2023/07/11 02:07:19;;;;;;;4.57;2.47;;;17.00;99.90;;;;;;5108259;28;20096;-79
2023/07/11 02:09:45;;;;;;;4.68;3.10;;;17.00;99.90;;;;;;5110118;28;20065;-79
2023/07/11 02:12:11;;;;;;;6.45;2.75;;;17.00;99.90;;;;;;5113827;27;20505;-79
2023/07/11 02:14:40;;;;;;;5.75;2.80;;;17.00;99.90;;;;;;5113099;27;20216;-79
2023/07/11 02:17:06;;;;;;;4.47;2.70;;;17.00;99.90;;;;;;5112601;27;20198;-79
2023/07/11 02:19:32;;;;;;;5.72;2.60;;;17.00;99.90;;;;;;5124694;27;20090;-78
2023/07/11 02:21:57;;;;;;;5.60;3.25;;;17.00;99.90;;;;;;5108558;27;20591;-79
2023/07/11 02:24:23;;;;;;;4.38;2.88;;;16.90;99.90;;;;;;5123725;27;20043;-79
2023/07/11 02:26:48;;;;;;;4.07;3.30;;;16.90;99.90;;;;;;5114113;27;20047;-79
2023/07/11 02:29:14;;;;;;;5.25;2.90;;;16.90;99.90;;;;;;5108484;27;20051;-79
2023/07/11 02:31:40;;;;;;;3.45;3.05;;;16.90;99.90;;;;;;5111743;27;20043;-78
2023/07/11 02:34:06;;;;;;;6.15;3.17;;;16.90;99.90;;;;;;5107073;28;20130;-79
2023/07/11 02:36:32;;;;;;;4.65;2.92;;;17.00;99.90;;;;;;5124168;27;20114;-79
2023/07/11 02:38:57;;;;;;;4.30;2.88;;;16.90;99.90;;;;;;5120297;28;20643;-78
2023/07/11 02:41:25;;;;;;;8.00;3.47;;;16.90;99.90;;;;;;5106467;28;20043;-79
2023/07/11 02:43:51;;;;;;;6.43;3.40;;;16.90;99.90;;;;;;5105717;28;20518;-79
2023/07/11 02:46:16;;;;;;;6.28;3.45;;;16.90;99.90;;;;;;5106358;28;20056;-79
2023/07/11 02:48:43;;;;;;;6.07;3.20;;;16.90;99.90;;;;;;5089726;28;20055;-79
2023/07/11 02:51:10;;;;;;;6.45;3.42;;;17.00;99.90;;;;;;5106970;28;20137;-79
2023/07/11 02:53:36;;;;;;;8.90;3.10;;;16.80;99.90;;;;;;5105378;28;20054;-78
2023/07/11 02:56:02;;;;;;;6.80;3.05;;;16.80;99.90;;;;;;5107653;28;20051;-78
2023/07/11 02:58:28;;;;;;;4.90;3.15;;;16.70;99.90;;;;;;5113101;27;20040;-78
2023/07/11 03:00:59;;;;;;;5.95;3.58;;;16.70;99.90;;;;;;5107085;27;20547;-79
2023/07/11 03:03:25;;;;;;;6.10;3.50;;;16.70;99.90;;;;;;5108105;27;20051;-78
2023/07/11 03:05:52;;;;;;;6.18;3.17;;;16.60;99.90;;;;;;5108248;27;20497;-78
2023/07/11 03:08:19;;;;;;;5.90;3.67;;;16.60;99.90;;;;;;5117659;27;20505;-79
2023/07/11 03:10:44;;;;;;;6.90;3.33;;;16.60;99.90;;;;;;5107997;27;20084;-79
2023/07/11 03:13:10;;;;;;;4.07;3.50;;;16.50;99.90;;;;;;5107370;27;20036;-78
2023/07/11 03:15:38;;;;;;;5.53;2.78;;;16.50;99.90;;;;;;5109747;27;21048;-79
2023/07/11 03:18:06;;;;;;;5.57;3.35;;;16.40;99.90;;;;;;5108840;27;20123;-79
2023/07/11 03:20:39;;;;;;;3.95;3.22;;;16.40;99.90;;;;;;5106905;27;20092;-79
2023/07/11 03:23:07;;;;;;;7.30;3.75;;;16.40;99.90;;;;;;5107347;27;20039;-79
2023/07/11 03:25:32;;;;;;;5.75;3.35;;;16.70;99.90;;;;;;5109414;27;20374;-79
2023/07/11 03:27:58;;;;;;;7.85;3.40;;;16.40;99.90;;;;;;5108201;27;20108;-78
2023/07/11 03:30:24;;;;;;;7.28;3.95;;;16.40;99.90;;;;;;5106879;27;20093;-78
2023/07/11 03:32:49;;;;;;;6.45;3.90;;;16.30;99.90;;;;;;5106771;27;20101;-79
2023/07/11 03:35:15;;;;;;;5.50;3.67;;;16.40;99.90;;;;;;5107041;27;20130;-78
2023/07/11 03:37:43;;;;;;;5.90;3.83;;;16.40;99.90;;;;;;5109801;27;20489;-79
2023/07/11 03:40:09;;;;;;;10.77;4.22;;;16.40;99.90;;;;;;5107740;27;20055;-78
2023/07/11 03:42:35;;;;;;;6.85;4.15;;;16.40;99.90;;;;;;5109884;27;20757;-78
2023/07/11 03:45:00;;;;;;;7.82;4.10;;;16.30;99.90;;;;;;5107614;27;20058;-79
2023/07/11 03:47:26;;;;;;;6.45;4.15;;;16.40;99.90;;;;;;5106497;27;20408;-79
2023/07/11 03:49:51;;;;;;;7.88;4.28;;;16.40;99.90;;;;;;5106551;27;20124;-78
2023/07/11 03:52:17;;;;;;;8.13;4.25;;;16.40;99.90;;;;;;5110754;27;20039;-78
2023/07/11 03:54:42;;;;;;;7.18;4.00;;;16.40;99.90;;;;;;5106831;28;20052;-79
2023/07/11 03:57:08;;;;;;;6.88;3.72;;;16.40;99.90;;;;;;5112678;27;20043;-78
2023/07/11 03:59:34;;;;;;;7.18;3.80;;;16.30;99.90;;;;;;5115314;27;20045;-78
2023/07/11 04:01:59;;;;;;;7.03;4.07;;;16.30;99.90;;;;;;5119199;27;20522;-78
2023/07/11 04:04:25;;;;;;;6.25;4.00;;;16.30;99.90;;;;;;5092201;27;20130;-78
2023/07/11 04:06:51;;;;;;;7.20;4.85;;;16.40;99.90;;;;;;5106226;27;20131;-78
2023/07/11 04:09:16;;;;;;;10.57;5.00;;;16.40;99.90;;;;;;5111359;27;20048;-78
2023/07/11 04:11:42;;;;;;;7.82;4.63;;;16.40;99.90;;;;;;5108013;27;20071;-78
2023/07/11 04:14:10;;;;;;;10.90;4.97;;;16.40;99.90;;;;;;5108138;27;20047;-78
2023/07/11 04:16:36;;;;;;;10.00;4.75;;;16.40;99.90;;;;;;5089548;27;20050;-78
2023/07/11 04:19:02;;;;;;;7.32;4.88;;;16.40;99.90;;;;;;5105873;27;20035;-78
2023/07/11 04:21:28;;;;;;;6.30;4.68;;;16.40;99.90;;;;;;5107698;27;20555;-78
2023/07/11 04:23:53;;;;;;;6.57;4.43;;;16.50;99.90;;;;;;5108323;27;20032;-78
2023/07/11 04:26:19;;;;;;;8.05;4.38;;;16.50;99.90;;;;;;5110050;27;20714;-79
2023/07/11 04:28:44;;;;;;;6.68;4.60;;;16.50;99.90;;;;;;5107506;27;20047;-78
2023/07/11 04:31:10;;;;;;;8.30;4.43;;;16.60;99.90;;;;;;5107053;27;20070;-78
2023/07/11 04:33:36;;;;;;;8.15;4.78;;;16.60;99.90;;;;;;5109187;27;20043;-78
2023/07/11 04:36:10;;;;;;;6.45;4.20;;;16.70;99.90;;;;;;5119538;27;20047;-78
2023/07/11 04:38:36;;;;;;;6.40;4.03;;;16.80;99.90;;;;;;5114739;27;20193;-78
2023/07/11 04:41:03;;;;;;;6.15;4.47;;;16.90;99.90;;;;;;5105773;27;20119;-78
2023/07/11 04:43:29;;;;;;;5.45;4.60;;;16.90;99.90;;;;;;5107468;27;20100;-78
2023/07/11 04:45:58;;;;;;;9.80;4.40;;;16.90;99.90;;;;;;5108136;27;20425;-78
2023/07/11 04:48:24;;;;;;;5.20;4.70;;;17.00;99.90;;;;;;5107692;27;20055;-78
2023/07/11 04:50:56;;;;;;;5.88;4.25;;;17.00;99.90;;;;;;5088729;27;20047;-78
2023/07/11 04:53:21;;;;;;;;;;;17.20;99.90;;;;;;5105690;27;20055;-78
2023/07/11 04:55:54;;;;;;;6.95;4.88;;;17.20;99.90;;;;;;5105258;27;19927;-78
2023/07/11 04:58:20;;;;;;;6.13;4.82;;;17.30;99.90;;;;;;5107141;27;20057;-77
2023/07/11 05:00:45;;;;;;;5.10;4.13;;;17.40;99.90;;;;;;5109881;27;20139;-79
2023/07/11 05:03:11;;;;;;;8.05;4.20;;;17.50;99.90;;;;;;5118372;27;20054;-78
2023/07/11 05:05:36;;;;;;;10.05;4.95;;;17.60;99.90;;;;;;5111296;27;20044;-80
2023/07/11 05:08:02;;;;;;;6.15;5.05;;;17.60;99.90;;;;;;5129133;27;20085;-78
2023/07/11 05:10:27;;;;;;;8.40;4.90;;;17.60;99.90;;;;;;5126184;27;20142;-79
2023/07/11 05:12:53;;;;;;;8.50;5.40;;;17.60;99.90;;;;;;5113596;27;20035;-79
2023/07/11 05:15:18;;;;;;;8.73;4.95;;;17.60;99.90;;;;;;5107633;27;20040;-79
2023/07/11 05:17:44;;;;;;;7.95;5.15;;;17.70;99.90;;;;;;5108990;27;20101;-79
2023/07/11 05:20:10;;;;;;;7.47;4.60;;;17.80;99.90;;;;;;5107360;27;20405;-79
2023/07/11 05:22:36;;;;;;;7.70;4.70;;;17.90;99.90;;;;;;5105299;27;20035;-79
2023/07/11 05:25:01;;;;;;;7.43;4.70;;;18.00;99.90;;;;;;5111329;27;20043;-79
2023/07/11 05:27:27;;;;;;;7.40;4.70;;;18.10;99.90;;;;;;5119861;27;20071;-79
2023/07/11 05:29:52;;;;;;;18.85;5.68;;;18.20;99.90;;;;;;5091115;28;20048;-79
2023/07/11 05:32:18;;;;;;;7.45;4.88;;;18.20;99.90;;;;;;5108207;28;20047;-79
2023/07/11 05:34:44;;;;;;;8.15;5.00;;;18.30;99.90;;;;;;5107638;28;20375;-79
2023/07/11 05:37:09;;;;;;;5.55;4.80;;;18.90;99.90;;;;;;5121610;27;20047;-79
2023/07/11 05:39:35;;;;;;;7.68;4.80;;;19.50;99.90;;;;;;5128549;27;20160;-79
2023/07/11 05:42:01;;;;;;;6.65;4.35;;;20.40;99.90;;;;;;5126078;27;20039;-79
2023/07/11 05:44:26;;;;;;;6.88;4.30;;;21.00;99.90;;;;;;5128097;27;20459;-80
2023/07/11 05:46:52;;;;;;;9.52;4.80;;;21.60;99.90;;;;;;5128144;27;20036;-78
2023/07/11 05:49:18;;;;;;;7.53;5.00;;;21.80;99.90;;;;;;5115987;27;20139;-78
2023/07/11 05:51:43;;;;;;;6.97;4.65;;;22.10;99.90;;;;;;5108397;28;20055;-78
2023/07/11 05:54:09;;;;;;;6.35;4.43;;;22.60;99.90;;;;;;5107646;28;20056;-79
2023/07/11 05:56:35;;;;;;;6.55;4.53;;;23.30;99.90;;;;;;5123161;27;20051;-78
2023/07/11 05:59:00;;;;;;;4.82;4.25;;;24.20;99.90;;;;;;5127726;27;20055;-79
2023/07/11 06:01:28;;;;;;;5.47;3.95;;;24.30;99.90;;;;;;5128110;27;20039;-78
2023/07/11 06:04:06;;;;;;;6.95;4.40;;;24.50;99.90;;;;;;5119213;27;20047;-78
2023/07/11 06:06:35;;;;;;;9.52;4.10;;;24.70;99.90;;;;;;5128708;27;20039;-79
2023/07/11 06:09:00;;;;;;;7.18;3.90;;;25.40;99.90;;;;;;5128004;27;20100;-78
2023/07/11 06:11:26;;;;;;;5.80;4.20;;;25.70;99.90;;;;;;5128366;27;20051;-78
2023/07/11 06:13:51;;;;;;;6.88;4.00;;;26.10;99.50;;;;;;5128124;27;20051;-79
2023/07/11 06:16:18;;;;;;;12.30;4.47;;;26.40;98.10;;;;;;5110889;27;20082;-78
2023/07/11 06:18:46;;;;;;;6.72;3.70;;;26.70;97.00;;;;;;5117113;28;20043;-76
2023/07/11 06:21:12;;;;;;;5.55;3.78;;;27.10;95.40;;;;;;5126067;27;20121;-78
2023/07/11 06:23:38;;;;;;;7.40;3.67;;;27.20;94.30;;;;;;5127684;27;20059;-77
2023/07/11 06:26:05;;;;;;;5.18;3.47;;;27.30;93.20;;;;;;5126034;28;20452;-77
2023/07/11 06:28:31;;;;;;;5.25;3.40;;;27.40;92.90;;;;;;5127753;27;20100;-77
2023/07/11 06:30:59;;;;;;;6.18;3.63;;;26.80;92.30;;;;;;5126146;27;20035;-78
2023/07/11 06:33:26;;;;;;;5.25;3.10;;;26.80;92.40;;;;;;5120729;27;20054;-78
2023/07/11 06:35:52;;;;;;;6.93;3.17;;;26.50;92.00;;;;;;5113037;27;20059;-78
2023/07/11 06:38:19;;;;;;;5.47;3.15;;;26.60;91.90;;;;;;5122234;27;20133;-77
2023/07/11 06:40:53;;;;;;;5.00;3.17;;;26.20;92.00;;;;;;5110713;27;20131;-77
2023/07/11 06:43:20;;;;;;;6.35;3.60;;;25.80;92.20;;;;;;5094902;28;20133;-77
2023/07/11 06:45:47;;;;;;;4.97;3.63;;;24.90;93.70;;;;;;5094199;28;20476;-77
2023/07/11 06:48:17;;;;;;;5.13;3.70;;;24.60;95.10;;;;;;5093573;28;20051;-77
2023/07/11 06:50:50;;;;;;;5.53;3.30;;;24.30;95.90;;;;;;5112836;27;20040;-77
2023/07/11 06:53:16;;;;;;;4.97;3.38;;;23.80;96.90;;;;;;5112424;28;20428;-77
2023/07/11 06:55:50;;;;;;;7.10;3.67;;;23.70;98.00;;;;;;5112245;28;20047;-77
2023/07/11 06:58:16;;;;;;;6.22;3.10;;;23.60;98.40;;;;;;5110974;28;20048;-77
2023/07/11 07:00:42;;;;;;;7.60;3.20;;;23.50;99.30;;;;;;5110545;28;20062;-79
2023/07/11 07:03:12;;;;;;;5.82;3.50;;;23.50;99.70;;;;;;5119775;27;20039;-78
2023/07/11 07:05:38;;;;;;;5.60;3.50;;;23.40;99.70;;;;;;5119053;27;20092;-78
2023/07/11 07:08:03;;;;;;;4.72;3.55;;;23.50;99.90;;;;;;5131109;27;20040;-77
2023/07/11 07:10:29;;;;;;;8.45;3.80;;;23.50;99.90;;;;;;5132658;27;20035;-77
2023/07/11 07:12:54;;;;;;;7.88;3.30;;;23.90;99.90;;;;;;5112683;27;20082;-77
2023/07/11 07:15:20;;;;;;;6.88;3.30;;;23.90;99.90;;;;;;5110571;27;20040;-77
2023/07/11 07:17:46;;;;;;;6.20;3.45;;;24.00;99.90;;;;;;5110155;28;20031;-77
2023/07/11 07:20:12;;;;;;;5.53;3.58;;;24.00;99.50;;;;;;5109938;28;20050;-77
2023/07/11 07:22:37;;;;;;;4.65;3.50;;;24.00;99.30;;;;;;5110595;28;20116;-76
2023/07/11 07:25:04;;;;;;;5.30;3.45;;;23.90;99.20;;;;;;5111585;28;20088;-76
2023/07/11 07:27:30;;;;;;;5.75;3.67;;;23.80;99.50;;;;;;5110354;28;20546;-76
2023/07/11 07:29:55;;;;;;;4.47;3.28;;;23.90;99.80;;;;;;5110152;28;20058;-76
2023/07/11 07:32:21;;;;;;;7.10;3.13;;;24.10;99.90;;;;;;5109818;28;20699;-77
2023/07/11 07:34:47;;;;;;;7.75;3.85;;;24.20;99.80;;;;;;5115226;27;20050;-77
2023/07/11 07:37:13;;;;;;;4.28;3.20;;;24.40;99.50;;;;;;5113538;27;20251;-77
2023/07/11 07:39:39;;;;;;;8.98;3.85;;;24.10;99.20;;;;;;5131907;27;20047;-77
2023/07/11 07:42:05;;;;;;;6.97;3.22;;;24.40;99.20;;;;;;5130455;27;20043;-77
2023/07/11 07:44:31;;;;;;;7.75;3.28;;;24.50;99.50;;;;;;5129970;27;20043;-76
2023/07/11 07:46:56;;;;;;;4.32;3.25;;;24.30;99.20;;;;;;5129282;27;20092;-77
2023/07/11 07:49:22;;;;;;;5.05;3.08;;;24.60;99.40;;;;;;5130599;27;20055;-77
2023/07/11 07:51:47;;;;;;;6.32;3.35;;;24.80;99.80;;;;;;5130477;27;20047;-77
2023/07/11 07:54:13;;;;;;;4.53;3.25;;;25.00;99.00;;;;;;5130684;27;20055;-77
2023/07/11 07:56:38;;;;;;;5.10;3.20;;;25.20;98.60;;;;;;5118205;27;20138;-78
2023/07/11 07:59:04;;;;;;;5.28;3.00;;;25.30;98.00;;;;;;5092554;28;20481;-79
2023/07/11 08:01:31;;;;;;;6.32;2.92;;;25.40;97.80;;;;;;5109219;28;20119;-79
2023/07/11 08:03:56;;;;;;;5.82;3.00;;;25.40;97.10;;;;;;5120755;27;20039;-79
2023/07/11 08:06:22;;;;;;;5.03;3.13;;;25.50;96.80;;;;;;5129435;27;20672;-78
2023/07/11 08:08:49;;;;;;;6.97;3.33;;;25.70;96.60;;;;;;5129974;27;20035;-78
2023/07/11 08:11:17;;;;;;;6.15;2.95;;;25.80;96.10;;;;;;5125012;27;20067;-79
2023/07/11 08:13:44;;;;;;;3.92;2.60;;;26.00;95.40;;;;;;5092280;28;20058;-79
2023/07/11 08:16:10;;;;;;;4.40;2.35;;;26.10;94.70;;;;;;5110824;28;20470;-79
2023/07/11 08:18:35;;;;;;;8.63;2.70;;;26.30;94.00;;;;;;5109440;28;20127;-80
2023/07/11 08:21:01;;;;;;;4.50;2.53;;;26.40;94.10;;;;;;5109418;28;20116;-79
2023/07/11 08:23:27;;;;;;;4.38;2.92;;;26.50;93.40;;;;;;5127208;27;20039;-80
2023/07/11 08:25:54;;;;;;;6.05;2.78;;;26.60;93.10;;;;;;5129716;27;20447;-79
2023/07/11 08:28:20;;;;;;;7.15;2.65;;;26.60;93.30;;;;;;5130482;27;20092;-78
2023/07/11 08:30:45;;;;;;;6.28;2.70;;;26.70;92.60;;;;;;5129775;27;20043;-80
2023/07/11 08:33:11;;;;;;;7.00;2.83;;;26.70;92.40;;;;;;5115903;27;20047;-81
2023/07/11 08:35:37;;;;;;;8.77;3.35;;;26.80;92.40;;;;;;5109034;28;20096;-81
2023/07/11 08:38:06;;;;;;;7.10;2.58;;;26.80;91.70;;;;;;5109030;28;20043;-79
2023/07/11 08:40:38;;;;;;;3.92;2.40;;;27.00;91.50;;;;;;5108778;28;20404;-80
2023/07/11 08:43:05;;;;;;;4.63;2.50;;;27.00;91.00;;;;;;5109014;28;20047;-80
2023/07/11 08:45:38;;;;;;;3.85;2.20;;;27.00;90.20;;;;;;5091854;28;20090;-80
2023/07/11 08:48:18;;;;;;;3.67;2.00;;;27.10;88.60;;;;;;5108402;28;20130;-80
2023/07/11 08:51:32;;;;;;;5.72;2.47;;;26.90;84.30;;;;;;5108913;28;20044;-80
2023/07/11 08:54:10;;;;;;;4.35;2.08;;;26.90;85.10;;;;;;5084974;28;20052;-81
2023/07/11 08:56:45;;;;;;;5.50;2.45;;;26.80;86.60;;;;;;5109504;27;20036;-79
2023/07/11 08:59:21;;;;;;;6.13;2.17;;;26.70;87.10;;;;;;5108544;28;20043;-78
2023/07/11 09:02:23;;;;;;;4.45;1.83;;;26.70;87.40;;;;;;5108133;28;20050;-80
2023/07/11 09:04:52;;;;;;;3.28;1.73;;;26.80;82.60;;;;;;5107829;28;20081;-80
2023/07/11 09:07:38;;;;;;;6.40;2.22;;;26.90;84.60;;;;;;5108521;28;20043;-79
2023/07/11 09:10:27;;;;;;;4.53;2.05;;;27.00;83.00;;;;;;5107936;28;20500;-79
2023/07/11 09:13:03;;;;;;;3.95;1.98;;;27.00;80.70;;;;;;5108832;28;20100;-79
2023/07/11 09:15:52;;;;;;;4.38;1.90;;;27.20;81.90;;;;;;5110678;27;20122;-80
2023/07/11 09:18:44;;;;;;;5.30;2.15;;;27.20;78.10;;;;;;5113079;27;20134;-79
2023/07/11 09:21:27;;;;;;;4.70;1.80;;;27.50;81.70;;;;;;5107967;28;20388;-79
2023/07/11 09:24:20;;;;;;;3.88;1.88;;;27.50;78.50;;;;;;5091648;28;20150;-79
2023/07/11 09:26:50;;;;;;;3.30;1.70;;;27.60;79.10;;;;;;5115144;27;20122;-79
2023/07/11 09:29:17;;;;;;;3.65;1.55;;;27.60;78.30;;;;;;5128509;27;20126;-79
2023/07/11 09:31:51;;;;;;;4.95;2.00;;;27.60;78.10;;;;;;5128460;27;20043;-79
2023/07/11 09:34:24;;;;;;;3.88;2.00;;;27.60;76.70;;;;;;5129661;27;20161;-79
2023/07/11 09:36:51;;;;;;;4.97;2.00;;;27.70;77.30;;;;;;5126821;27;20450;-80
2023/07/11 09:39:40;;;;;;;5.00;1.95;;;27.80;78.20;;;;;;5129432;27;20110;-79
2023/07/11 09:42:26;;;;;;;2.97;1.65;;;27.80;77.80;;;;;;5128389;27;20047;-80
2023/07/11 09:44:59;;;;;;;3.75;1.88;;;28.00;74.30;;;;;;5107761;28;20079;-79
2023/07/11 09:47:27;;;;;;;5.20;1.70;;;28.30;72.50;;;;;;5125952;27;20043;-81
2023/07/11 09:49:52;;;;;;;5.82;1.85;;;28.00;73.10;;;;;;5121750;27;20043;-79
2023/07/11 09:52:26;;;;;;;3.83;1.83;;;28.30;72.30;;;;;;5128319;27;20100;-79
2023/07/11 09:54:53;;;;;;;3.45;1.40;;;28.50;71.70;;;;;;5127678;27;20389;-81
2023/07/11 09:57:19;;;;;;;4.75;1.73;;;28.80;71.50;;;;;;5106725;28;20560;-80
2023/07/11 09:59:53;;;;;;;4.45;1.70;;;28.90;71.40;;;;;;5126299;27;20031;-80
2023/07/11 10:02:21;;;;;;;4.80;1.52;;;28.90;68.50;;;;;;5128258;27;20060;-80
2023/07/11 10:04:46;;;;;;;2.88;1.75;;;28.90;69.50;;;;;;5129014;27;20046;-81
2023/07/11 10:07:14;;;;;;;3.60;1.70;;;28.90;67.70;;;;;;5132214;27;20035;-81
2023/07/11 10:09:45;;;;;;;2.50;1.63;;;28.70;66.70;;;;;;5102310;27;20485;-80
2023/07/11 10:12:21;;;;;;;7.75;1.80;;;28.70;67.60;;;;;;5130832;27;20070;-80
2023/07/11 10:14:53;;;;;;;3.65;1.77;;;28.70;68.10;;;;;;5125186;27;20490;-81
2023/07/11 10:17:28;;;;;;;5.35;1.83;;;28.80;69.40;;;;;;5109238;27;20047;-80
2023/07/11 10:19:57;;;;;;;3.42;1.90;;;28.80;68.30;;;;;;5096200;28;20126;-81
2023/07/11 10:22:30;;;;;;;2.50;1.90;;;28.60;67.90;;;;;;5120330;27;20047;-82
2023/07/11 10:25:31;;;;;;;3.20;1.80;;;28.80;68.50;;;;;;5092856;27;20561;-82
2023/07/11 10:28:04;;;;;;;3.87;1.63;;;28.60;67.30;;;;;;5120332;27;20044;-82
2023/07/11 10:30:32;;;;;;;7.38;1.85;;;28.60;67.40;;;;;;5102983;28;20085;-81
2023/07/11 10:33:15;;;;;;;5.80;2.10;;;28.60;68.40;;;;;;5111933;28;20044;-82
2023/07/11 10:35:41;;;;;;;3.58;2.25;;;28.60;66.70;;;;;;5110992;28;20096;-82
2023/07/11 10:38:44;;;;;;;5.18;2.25;;;28.40;67.30;;;;;;5120287;27;20448;-82
2023/07/11 10:41:20;;;;;;;5.63;1.70;;;28.50;69.30;;;;;;5113437;27;20052;-82
2023/07/11 10:43:49;;;;;;;4.07;1.60;;;28.60;68.10;;;;;;5125286;27;20042;-81
2023/07/11 10:46:42;;;;;;;3.22;1.50;;;28.50;68.10;;;;;;5131349;27;20047;-82
2023/07/11 10:49:45;;;;;;;3.53;1.80;;;28.70;67.90;;;;;;5131330;27;20059;-82
2023/07/11 10:52:22;;;;;;;2.88;1.85;;;28.80;68.60;;;;;;5102701;27;20048;-82
2023/07/11 10:54:51;;;;;;;3.90;1.88;;;28.70;66.90;;;;;;5092839;28;20572;-82
2023/07/11 10:57:41;;;;;;;2.97;1.70;;;28.80;68.10;;;;;;5095595;27;20579;-82
2023/07/11 11:00:20;;;;;;;3.67;1.70;;;28.90;66.70;;;;;;5113127;27;20039;-82
2023/07/11 11:02:49;;;;;;;2.80;1.48;;;29.10;68.40;;;;;;5093936;27;20308;-83
2023/07/11 11:05:24;;;;;;;5.00;1.70;;;29.20;68.60;;;;;;5115805;27;20567;-84
2023/07/11 11:08:00;;;;;;;4.05;1.58;;;29.20;67.00;;;;;;5126959;27;20128;-82
2023/07/11 11:10:42;;;;;;;2.63;1.52;;;29.10;67.50;;;;;;5110184;28;20055;-82
2023/07/11 11:13:11;;;;;;;3.83;1.73;;;29.10;66.40;;;;;;5109396;27;20047;-84
2023/07/11 11:15:59;;;;;;;3.22;1.45;;;29.10;67.50;;;;;;5110771;27;20043;-83
2023/07/11 11:18:35;;;;;;;4.28;1.70;;;29.20;68.40;;;;;;5109387;28;20091;-83
2023/07/11 11:21:11;;;;;;;5.53;2.00;;;29.20;68.70;;;;;;5110057;28;20508;-83
2023/07/11 11:24:16;;;;;;;4.03;1.60;;;29.20;68.90;;;;;;5109150;27;20054;-85
2023/07/11 11:27:01;;;;;;;5.30;1.75;;;29.50;66.50;;;;;;5086145;27;20054;-84
2023/07/11 11:29:49;;;;;;;3.08;1.70;;;29.50;66.40;;;;;;5084561;27;20505;-84
2023/07/11 11:32:52;;;;;;;3.17;1.35;;;29.60;66.30;;;;;;5092367;28;20238;-84
2023/07/11 11:35:37;;;;;;;4.43;1.55;;;29.60;67.10;;;;;;5115545;27;20058;-84
2023/07/11 11:38:36;;;;;;;2.47;1.50;;;29.60;64.50;;;;;;5130542;27;20099;-82
2023/07/11 11:41:09;;;;;;;2.92;1.80;;;29.60;64.20;;;;;;5130409;27;20042;-83
2023/07/11 11:43:37;;;;;;;2.78;1.50;;;29.60;65.80;;;;;;5130000;27;20046;-83
2023/07/11 11:46:07;;;;;;;2.20;1.38;;;29.70;66.10;;;;;;5119454;27;20040;-83
2023/07/11 11:48:36;;;;;;;2.33;1.38;;;29.70;65.60;;;;;;5093603;28;20076;-84
2023/07/11 11:51:06;;;;;;;7.57;1.70;;;29.80;65.40;;;;;;5110503;28;20050;-82
2023/07/11 11:53:31;;;;;;;3.28;1.60;;;29.90;65.00;;;;;;5111741;28;20046;-82
2023/07/11 11:56:08;;;;;;;2.83;1.67;;;30.00;64.80;;;;;;5116371;27;20040;-83
2023/07/11 11:58:38;;;;;;;2.47;1.73;;;30.10;65.40;;;;;;5116539;27;20043;-83
2023/07/11 12:01:04;;;;;;;4.87;1.77;;;30.20;64.40;;;;;;5129585;27;20047;-82
2023/07/11 12:03:33;;;;;;;2.67;1.67;;;30.30;64.10;;;;;;5095883;28;20036;-83
2023/07/11 12:06:03;;;;;;;3.83;1.67;;;30.10;63.30;;;;;;5114603;27;20040;-84
2023/07/11 12:08:37;;;;;;;4.38;2.17;;;30.10;62.30;;;;;;5125864;27;20070;-82
2023/07/11 12:11:08;;;;;;;5.90;1.98;;;29.90;61.00;;;;;;5129696;27;20051;-82
2023/07/11 12:13:39;;;;;;;3.53;1.80;;;30.00;61.50;;;;;;5113085;27;20090;-84
2023/07/11 12:16:21;;;;;;;2.35;1.80;;;30.00;61.60;;;;;;5129953;27;20126;-83
2023/07/11 12:18:51;;;;;;;6.25;1.95;;;30.00;61.20;;;;;;5094106;28;20875;-83
2023/07/11 12:21:31;;;;;;;6.50;1.73;;;30.10;62.00;;;;;;5110387;28;20093;-83
2023/07/11 12:24:18;;;;;;;4.75;1.65;;;30.30;61.30;;;;;;5128466;27;20496;-83
2023/07/11 12:26:44;;;;;;;3.55;1.52;;;30.30;61.40;;;;;;5129013;27;20058;-82
2023/07/11 12:29:40;;;;;;;4.28;1.70;;;30.30;61.30;;;;;;5111269;27;20052;-82
2023/07/11 12:32:29;;;;;;;4.28;1.80;;;30.40;61.70;;;;;;5108228;28;20051;-82
2023/07/11 12:34:55;;;;;;;2.67;1.77;;;30.60;63.40;;;;;;5091395;28;20501;-82
2023/07/11 12:37:25;;;;;;;2.75;1.77;;;30.70;61.80;;;;;;5116180;27;20042;-83
2023/07/11 12:40:14;;;;;;;3.78;1.80;;;30.60;61.60;;;;;;5128598;27;20409;-84
2023/07/11 12:42:59;;;;;;;2.35;1.58;;;30.50;61.10;;;;;;5120621;27;20556;-82
2023/07/11 12:45:32;;;;;;;3.65;2.00;;;30.50;60.50;;;;;;5113704;27;20040;-83
2023/07/11 12:48:10;;;;;;;3.85;1.98;;;30.50;60.60;;;;;;5108211;28;20171;-83
2023/07/11 12:50:53;;;;;;;2.20;1.60;;;30.30;60.10;;;;;;5108686;28;20413;-82
2023/07/11 12:53:19;;;;;;;3.65;1.95;;;30.10;60.50;;;;;;5108984;28;20051;-82
2023/07/11 12:55:50;;;;;;;5.10;2.00;;;30.00;60.90;;;;;;5121630;27;20507;-83
2023/07/11 12:58:18;;;;;;;3.55;1.60;;;30.00;60.90;;;;;;5130125;27;20126;-83
2023/07/11 13:00:45;;;;;;;3.17;1.95;;;29.80;61.40;;;;;;5114825;27;20478;-84
2023/07/11 13:03:36;;;;;;;7.55;2.20;;;29.70;61.50;;;;;;5119040;27;20358;-82